createdAt,value
2019-06-20T00:00:18.371Z,1013.81
2019-06-20T00:00:48.238Z,1013.85
2019-06-20T00:01:18.185Z,1013.79
2019-06-20T00:02:18.192Z,1013.83
2019-06-20T00:02:48.246Z,1013.83
2019-06-20T00:03:18.184Z,1013.88
2019-06-20T00:03:51.249Z,1013.85
2019-06-20T00:04:48.249Z,1013.85
2019-06-20T00:05:18.193Z,1013.85
2019-06-20T00:05:49.341Z,1013.85
2019-06-20T00:06:18.195Z,1013.85
2019-06-20T00:07:18.315Z,1013.84
2019-06-20T00:07:48.333Z,1013.84
2019-06-20T00:08:18.191Z,1013.86
2019-06-20T00:08:48.255Z,1013.90
2019-06-20T00:09:48.345Z,1013.96
2019-06-20T00:10:18.193Z,1013.95
2019-06-20T00:10:48.251Z,1013.96
2019-06-20T00:11:18.190Z,1013.93
2019-06-20T00:12:18.197Z,1013.94
2019-06-20T00:13:00.151Z,1013.94
2019-06-20T00:13:18.193Z,1013.97
2019-06-20T00:13:48.275Z,1014.01
2019-06-20T00:14:48.257Z,1013.99
2019-06-20T00:15:18.195Z,1013.96
2019-06-20T00:15:48.286Z,1013.96
2019-06-20T00:16:19.208Z,1013.97
2019-06-20T00:17:21.139Z,1013.97
2019-06-20T00:17:48.252Z,1013.96
2019-06-20T00:18:18.188Z,1013.94
2019-06-20T00:18:48.256Z,1013.95
2019-06-20T00:19:48.262Z,1013.93
2019-06-20T00:20:18.199Z,1013.92
2019-06-20T00:20:48.252Z,1013.93
2019-06-20T00:21:18.197Z,1013.93
2019-06-20T00:22:18.201Z,1013.93
2019-06-20T00:22:48.252Z,1013.94
2019-06-20T00:23:18.201Z,1013.91
2019-06-20T00:23:48.249Z,1013.88
2019-06-20T00:24:51.257Z,1013.92
2019-06-20T00:25:18.205Z,1013.91
2019-06-20T00:25:48.253Z,1013.94
2019-06-20T00:26:18.207Z,1013.95
2019-06-20T00:27:18.198Z,1013.94
2019-06-20T00:27:51.101Z,1013.98
2019-06-20T00:28:18.412Z,1013.97
2019-06-20T00:28:48.251Z,1014.00
2019-06-20T00:29:18.211Z,1013.98
2019-06-20T00:29:48.262Z,1013.99
2019-06-20T00:30:18.193Z,1014.00
2019-06-20T00:30:48.305Z,1014.02
2019-06-20T00:31:18.191Z,1013.99
2019-06-20T00:32:18.202Z,1014.03
2019-06-20T00:32:48.260Z,1014.01
2019-06-20T00:33:18.191Z,1014.03
2019-06-20T00:33:48.259Z,1013.99
2019-06-20T00:34:48.356Z,1014.03
2019-06-20T00:35:21.215Z,1014.03
2019-06-20T00:35:48.247Z,1014.05
2019-06-20T00:36:18.196Z,1014.02
2019-06-20T00:37:19.207Z,1014.02
2019-06-20T00:37:48.264Z,1014.02
2019-06-20T00:38:21.127Z,1014.03
2019-06-20T00:38:48.259Z,1014.02
2019-06-20T00:39:48.429Z,1014.06
2019-06-20T00:40:18.215Z,1014.04
2019-06-20T00:40:48.259Z,1014.04
2019-06-20T00:41:18.205Z,1014.06
2019-06-20T00:42:18.198Z,1014.07
2019-06-20T00:42:48.258Z,1014.07
2019-06-20T00:43:20.209Z,1014.08
2019-06-20T00:43:48.250Z,1014.07
2019-06-20T00:44:48.263Z,1014.07
2019-06-20T00:45:18.200Z,1014.10
2019-06-20T00:45:51.259Z,1014.10
2019-06-20T00:46:18.200Z,1014.06
2019-06-20T00:47:18.195Z,1014.07
2019-06-20T00:47:49.259Z,1014.06
2019-06-20T00:48:18.202Z,1014.08
2019-06-20T00:48:51.093Z,1014.08
2019-06-20T00:49:48.264Z,1014.04
2019-06-20T00:50:18.214Z,1014.06
2019-06-20T00:50:48.275Z,1014.04
2019-06-20T00:51:18.204Z,1014.01
2019-06-20T00:52:18.207Z,1014.06
2019-06-20T00:52:48.260Z,1014.05
2019-06-20T00:53:18.208Z,1014.02
2019-06-20T00:53:48.279Z,1014.06
2019-06-20T00:54:48.295Z,1014.05
2019-06-20T00:55:18.218Z,1014.05
2019-06-20T00:55:48.276Z,1014.04
2019-06-20T00:56:21.235Z,1014.02
2019-06-20T00:57:18.204Z,1014.01
2019-06-20T00:57:48.268Z,1014.03
2019-06-20T00:58:19.218Z,1014.04
2019-06-20T00:58:48.262Z,1014.04
2019-06-20T00:59:48.270Z,1014.05
2019-06-20T01:00:18.203Z,1014.05
2019-06-20T01:00:48.272Z,1014.07
2019-06-20T01:01:18.230Z,1014.07
2019-06-20T01:01:48.323Z,1014.10
2019-06-20T01:02:18.227Z,1014.10
2019-06-20T01:02:48.273Z,1014.11
2019-06-20T01:03:18.205Z,1014.12
2019-06-20T01:03:48.285Z,1014.12
2019-06-20T01:04:18.203Z,1014.13
2019-06-20T01:04:48.366Z,1014.10
2019-06-20T01:05:18.204Z,1014.11
2019-06-20T01:05:48.277Z,1014.11
2019-06-20T01:06:18.235Z,1014.14
2019-06-20T01:06:51.253Z,1014.14
2019-06-20T01:07:18.209Z,1014.14
2019-06-20T01:07:48.272Z,1014.15
2019-06-20T01:08:18.224Z,1014.14
2019-06-20T01:08:49.272Z,1014.14
2019-06-20T01:09:18.215Z,1014.17
2019-06-20T01:09:52.046Z,1014.16
2019-06-20T01:10:18.231Z,1014.17
2019-06-20T01:10:48.304Z,1014.16
2019-06-20T01:11:18.212Z,1014.17
2019-06-20T01:11:48.268Z,1014.17
2019-06-20T01:12:18.218Z,1014.18
2019-06-20T01:12:48.264Z,1014.18
2019-06-20T01:13:32.874Z,1014.17
2019-06-20T01:13:48.272Z,1014.19
2019-06-20T01:14:18.360Z,1014.16
2019-06-20T01:14:48.283Z,1014.18
2019-06-20T01:15:18.211Z,1014.18
2019-06-20T01:15:48.270Z,1014.20
2019-06-20T01:16:18.230Z,1014.19
2019-06-20T01:16:48.271Z,1014.21
2019-06-20T01:17:21.225Z,1014.20
2019-06-20T01:17:48.267Z,1014.20
2019-06-20T01:18:18.228Z,1014.18
2019-06-20T01:18:48.263Z,1014.19
2019-06-20T01:19:19.213Z,1014.17
2019-06-20T01:19:48.272Z,1014.16
2019-06-20T01:20:21.147Z,1014.17
2019-06-20T01:20:48.274Z,1014.16
2019-06-20T01:21:18.212Z,1014.16
2019-06-20T01:21:48.307Z,1014.14
2019-06-20T01:22:18.215Z,1014.14
2019-06-20T01:22:48.330Z,1014.14
2019-06-20T01:23:18.216Z,1014.13
2019-06-20T01:23:48.383Z,1014.12
2019-06-20T01:24:18.206Z,1014.13
2019-06-20T01:24:48.266Z,1014.10
2019-06-20T01:25:18.219Z,1014.10
2019-06-20T01:25:48.273Z,1014.09
2019-06-20T01:26:18.230Z,1014.11
2019-06-20T01:26:48.336Z,1014.10
2019-06-20T01:27:18.216Z,1014.09
2019-06-20T01:27:51.266Z,1014.07
2019-06-20T01:28:18.217Z,1014.08
2019-06-20T01:28:48.275Z,1014.08
2019-06-20T01:29:18.220Z,1014.08
2019-06-20T01:29:49.303Z,1014.08
2019-06-20T01:30:18.217Z,1014.07
2019-06-20T01:30:51.234Z,1014.06
2019-06-20T01:31:18.210Z,1014.07
2019-06-20T01:31:48.271Z,1014.06
2019-06-20T01:32:18.208Z,1014.07
2019-06-20T01:32:48.269Z,1014.01
2019-06-20T01:33:18.219Z,1014.00
2019-06-20T01:33:48.272Z,1014.02
2019-06-20T01:34:18.231Z,1014.00
2019-06-20T01:34:48.276Z,1014.01
2019-06-20T01:35:18.213Z,1014.00
2019-06-20T01:35:48.291Z,1014.00
2019-06-20T01:36:18.216Z,1014.03
2019-06-20T01:36:48.285Z,1014.05
2019-06-20T01:37:18.216Z,1014.05
2019-06-20T01:37:48.273Z,1014.04
2019-06-20T01:38:21.252Z,1014.05
2019-06-20T01:38:48.274Z,1014.08
2019-06-20T01:39:18.215Z,1014.09
2019-06-20T01:39:48.280Z,1014.09
2019-06-20T01:40:19.224Z,1014.10
2019-06-20T01:40:48.279Z,1014.08
2019-06-20T01:41:21.182Z,1014.08
2019-06-20T01:41:48.282Z,1014.08
2019-06-20T01:42:18.222Z,1014.09
2019-06-20T01:42:48.271Z,1014.10
2019-06-20T01:43:18.234Z,1014.10
2019-06-20T01:43:51.339Z,1014.10
2019-06-20T01:44:18.216Z,1014.10
2019-06-20T01:44:48.278Z,1014.09
2019-06-20T01:45:18.223Z,1014.09
2019-06-20T01:45:48.286Z,1014.11
2019-06-20T01:46:18.225Z,1014.08
2019-06-20T01:46:48.272Z,1014.06
2019-06-20T01:47:18.223Z,1014.06
2019-06-20T01:47:48.278Z,1014.03
2019-06-20T01:48:18.235Z,1014.03
2019-06-20T01:48:51.410Z,1014.02
2019-06-20T01:49:18.214Z,1014.02
2019-06-20T01:49:48.276Z,1014.04
2019-06-20T01:50:18.212Z,1014.05
2019-06-20T01:50:49.295Z,1014.04
2019-06-20T01:51:18.226Z,1014.07
2019-06-20T01:51:51.236Z,1014.06
2019-06-20T01:52:18.232Z,1014.07
2019-06-20T01:52:48.280Z,1014.09
2019-06-20T01:53:18.242Z,1014.10
2019-06-20T01:53:48.281Z,1014.12
2019-06-20T01:54:18.228Z,1014.11
2019-06-20T01:55:18.231Z,1014.13
2019-06-20T01:55:48.291Z,1014.13
2019-06-20T01:56:18.229Z,1014.12
2019-06-20T01:56:48.290Z,1014.13
2019-06-20T01:57:48.288Z,1014.13
2019-06-20T01:58:18.241Z,1014.15
2019-06-20T01:58:48.280Z,1014.15
2019-06-20T01:59:21.226Z,1014.15
2019-06-20T02:00:18.224Z,1014.16
2019-06-20T02:00:48.285Z,1014.15
2019-06-20T02:01:19.230Z,1014.15
2019-06-20T02:01:48.297Z,1014.16
2019-06-20T02:02:48.282Z,1014.17
2019-06-20T02:03:18.237Z,1014.16
2019-06-20T02:03:48.278Z,1014.16
2019-06-20T02:04:18.220Z,1014.16
2019-06-20T02:05:18.475Z,1014.15
2019-06-20T02:05:48.286Z,1014.14
2019-06-20T02:06:18.260Z,1014.13
2019-06-20T02:06:48.287Z,1014.15
2019-06-20T02:07:48.284Z,1014.15
2019-06-20T02:08:18.224Z,1014.17
2019-06-20T02:08:48.287Z,1014.15
2019-06-20T02:09:18.226Z,1014.18
2019-06-20T02:10:18.230Z,1014.17
2019-06-20T02:10:48.293Z,1014.23
2019-06-20T02:11:18.225Z,1014.21
2019-06-20T02:11:49.289Z,1014.21
2019-06-20T02:12:51.109Z,1014.18
2019-06-20T02:13:18.227Z,1014.18
2019-06-20T02:13:48.285Z,1014.18
2019-06-20T02:14:18.231Z,1014.18
2019-06-20T02:14:48.292Z,1014.20
2019-06-20T02:15:18.226Z,1014.21
2019-06-20T02:15:48.307Z,1014.22
2019-06-20T02:16:18.224Z,1014.22
2019-06-20T02:16:48.290Z,1014.21
2019-06-20T02:17:48.286Z,1014.23
2019-06-20T02:18:18.238Z,1014.22
2019-06-20T02:18:48.329Z,1014.21
2019-06-20T02:19:18.231Z,1014.18
2019-06-20T02:20:21.218Z,1014.20
2019-06-20T02:20:48.300Z,1014.19
2019-06-20T02:21:18.228Z,1014.20
2019-06-20T02:21:48.293Z,1014.18
2019-06-20T02:22:48.308Z,1014.16
2019-06-20T02:23:21.169Z,1014.17
2019-06-20T02:23:48.299Z,1014.18
2019-06-20T02:24:18.235Z,1014.18
2019-06-20T02:25:18.252Z,1014.18
2019-06-20T02:25:48.298Z,1014.20
2019-06-20T02:26:18.337Z,1014.18
2019-06-20T02:26:48.299Z,1014.18
2019-06-20T02:27:48.301Z,1014.22
2019-06-20T02:28:18.271Z,1014.23
2019-06-20T02:28:48.287Z,1014.23
2019-06-20T02:29:18.237Z,1014.23
2019-06-20T02:30:18.237Z,1014.21
2019-06-20T02:30:51.305Z,1014.24
2019-06-20T02:31:18.233Z,1014.26
2019-06-20T02:31:48.299Z,1014.26
2019-06-20T02:32:49.293Z,1014.24
2019-06-20T02:33:18.271Z,1014.27
2019-06-20T02:33:51.136Z,1014.28
2019-06-20T02:34:18.227Z,1014.30
2019-06-20T02:35:18.230Z,1014.30
2019-06-20T02:35:48.295Z,1014.30
2019-06-20T02:36:18.234Z,1014.31
2019-06-20T02:36:48.299Z,1014.30
2019-06-20T02:37:48.301Z,1014.33
2019-06-20T02:38:18.238Z,1014.32
2019-06-20T02:38:48.299Z,1014.33
2019-06-20T02:39:18.238Z,1014.31
2019-06-20T02:40:18.236Z,1014.34
2019-06-20T02:40:48.307Z,1014.35
2019-06-20T02:41:21.225Z,1014.39
2019-06-20T02:41:48.299Z,1014.36
2019-06-20T02:42:48.294Z,1014.39
2019-06-20T02:43:19.242Z,1014.42
2019-06-20T02:43:48.306Z,1014.40
2019-06-20T02:44:29.647Z,1014.41
2019-06-20T02:45:18.248Z,1014.41
2019-06-20T02:45:48.372Z,1014.40
2019-06-20T02:46:18.242Z,1014.43
2019-06-20T02:46:48.307Z,1014.40
2019-06-20T02:47:48.370Z,1014.42
2019-06-20T02:48:18.246Z,1014.41
2019-06-20T02:48:48.297Z,1014.43
2019-06-20T02:49:18.249Z,1014.42
2019-06-20T02:50:18.243Z,1014.43
2019-06-20T02:50:48.299Z,1014.44
2019-06-20T02:51:18.242Z,1014.41
2019-06-20T02:51:51.201Z,1014.44
2019-06-20T02:52:48.304Z,1014.47
2019-06-20T02:53:18.243Z,1014.49
2019-06-20T02:53:49.299Z,1014.51
2019-06-20T02:54:18.237Z,1014.51
2019-06-20T02:55:18.241Z,1014.56
2019-06-20T02:55:48.307Z,1014.54
2019-06-20T02:56:18.249Z,1014.55
2019-06-20T02:56:48.307Z,1014.55
2019-06-20T02:57:48.301Z,1014.56
2019-06-20T02:58:19.752Z,1014.55
2019-06-20T02:58:48.297Z,1014.56
2019-06-20T02:59:18.243Z,1014.54
2019-06-20T02:59:48.297Z,1014.55
2019-06-20T03:00:18.247Z,1014.53
2019-06-20T03:00:48.311Z,1014.51
2019-06-20T03:01:18.241Z,1014.50
2019-06-20T03:01:48.317Z,1014.51
2019-06-20T03:02:48.303Z,1014.50
2019-06-20T03:03:18.239Z,1014.49
2019-06-20T03:03:48.305Z,1014.48
2019-06-20T03:04:19.260Z,1014.49
2019-06-20T03:04:48.299Z,1014.50
2019-06-20T03:05:21.173Z,1014.52
2019-06-20T03:05:48.315Z,1014.50
2019-06-20T03:06:18.243Z,1014.51
2019-06-20T03:06:48.299Z,1014.50
2019-06-20T03:07:18.243Z,1014.49
2019-06-20T03:07:48.311Z,1014.51
2019-06-20T03:08:18.251Z,1014.50
2019-06-20T03:08:48.303Z,1014.48
2019-06-20T03:09:18.247Z,1014.51
2019-06-20T03:09:48.311Z,1014.52
2019-06-20T03:10:18.239Z,1014.49
2019-06-20T03:10:48.313Z,1014.53
2019-06-20T03:11:18.250Z,1014.52
2019-06-20T03:11:48.307Z,1014.53
2019-06-20T03:12:18.242Z,1014.55
2019-06-20T03:12:51.375Z,1014.52
2019-06-20T03:13:18.248Z,1014.54
2019-06-20T03:13:48.303Z,1014.56
2019-06-20T03:14:18.263Z,1014.57
2019-06-20T03:14:49.305Z,1014.54
2019-06-20T03:15:18.247Z,1014.54
2019-06-20T03:15:51.144Z,1014.55
2019-06-20T03:16:18.261Z,1014.53
2019-06-20T03:16:48.307Z,1014.53
2019-06-20T03:17:18.250Z,1014.53
2019-06-20T03:17:48.319Z,1014.51
2019-06-20T03:18:18.318Z,1014.53
2019-06-20T03:18:48.306Z,1014.51
2019-06-20T03:19:18.259Z,1014.52
2019-06-20T03:19:48.316Z,1014.54
2019-06-20T03:20:18.249Z,1014.55
2019-06-20T03:20:48.305Z,1014.55
2019-06-20T03:21:18.246Z,1014.56
2019-06-20T03:21:48.314Z,1014.59
2019-06-20T03:22:18.246Z,1014.58
2019-06-20T03:22:48.303Z,1014.58
2019-06-20T03:23:21.429Z,1014.55
2019-06-20T03:23:48.301Z,1014.52
2019-06-20T03:24:18.245Z,1014.53
2019-06-20T03:24:48.314Z,1014.55
2019-06-20T03:25:48.304Z,1014.57
2019-06-20T03:26:21.110Z,1014.56
2019-06-20T03:26:48.309Z,1014.60
2019-06-20T03:27:18.251Z,1014.58
2019-06-20T03:28:18.259Z,1014.59
2019-06-20T03:28:48.307Z,1014.58
2019-06-20T03:29:18.265Z,1014.57
2019-06-20T03:29:48.305Z,1014.56
2019-06-20T03:30:48.432Z,1014.62
2019-06-20T03:31:18.254Z,1014.62
2019-06-20T03:31:48.320Z,1014.61
2019-06-20T03:32:18.262Z,1014.62
2019-06-20T03:33:18.258Z,1014.62
2019-06-20T03:33:51.220Z,1014.63
2019-06-20T03:34:18.247Z,1014.67
2019-06-20T03:34:48.307Z,1014.65
2019-06-20T03:35:49.324Z,1014.64
2019-06-20T03:36:18.287Z,1014.63
2019-06-20T03:36:51.124Z,1014.65
2019-06-20T03:37:18.263Z,1014.66
2019-06-20T03:38:18.251Z,1014.67
2019-06-20T03:38:48.323Z,1014.69
2019-06-20T03:39:18.257Z,1014.70
2019-06-20T03:39:48.321Z,1014.69
2019-06-20T03:40:48.434Z,1014.71
2019-06-20T03:41:18.256Z,1014.73
2019-06-20T03:41:48.315Z,1014.77
2019-06-20T03:42:18.259Z,1014.76
2019-06-20T03:43:18.259Z,1014.78
2019-06-20T03:43:48.319Z,1014.81
2019-06-20T03:44:21.363Z,1014.81
2019-06-20T03:45:01.911Z,1014.84
2019-06-20T03:45:48.319Z,1014.87
2019-06-20T03:46:19.261Z,1014.90
2019-06-20T03:46:48.335Z,1014.90
2019-06-20T03:47:21.111Z,1014.91
2019-06-20T03:48:18.264Z,1014.96
2019-06-20T03:48:48.320Z,1014.97
2019-06-20T03:49:18.251Z,1014.92
2019-06-20T03:49:48.319Z,1014.91
2019-06-20T03:50:48.315Z,1014.90
2019-06-20T03:51:18.263Z,1014.90
2019-06-20T03:51:50.877Z,1014.89
2019-06-20T03:52:18.276Z,1014.91
2019-06-20T03:53:18.259Z,1014.92
2019-06-20T03:53:48.329Z,1014.91
2019-06-20T03:54:18.265Z,1014.90
2019-06-20T03:54:51.179Z,1014.91
2019-06-20T03:55:48.317Z,1014.89
2019-06-20T03:56:18.281Z,1014.87
2019-06-20T03:56:48.327Z,1014.91
2019-06-20T03:57:18.280Z,1014.91
2019-06-20T03:58:18.259Z,1014.92
2019-06-20T03:58:48.323Z,1014.92
2019-06-20T03:59:18.264Z,1014.91
2019-06-20T03:59:48.330Z,1014.92
2019-06-20T04:00:48.417Z,1014.95
2019-06-20T04:01:18.266Z,1014.95
2019-06-20T04:01:50.437Z,1014.96
2019-06-20T04:02:18.268Z,1014.95
2019-06-20T04:03:18.275Z,1014.98
2019-06-20T04:03:48.338Z,1014.99
2019-06-20T04:04:18.259Z,1014.98
2019-06-20T04:04:48.325Z,1014.99
2019-06-20T04:05:48.316Z,1014.98
2019-06-20T04:06:18.280Z,1015.00
2019-06-20T04:06:48.460Z,1015.00
2019-06-20T04:07:19.297Z,1015.02
2019-06-20T04:08:21.120Z,1015.02
2019-06-20T04:08:48.329Z,1015.04
2019-06-20T04:09:18.260Z,1015.05
2019-06-20T04:09:48.341Z,1015.05
2019-06-20T04:10:48.324Z,1015.09
2019-06-20T04:11:18.286Z,1015.12
2019-06-20T04:11:48.327Z,1015.14
2019-06-20T04:12:18.262Z,1015.12
2019-06-20T04:13:18.272Z,1015.14
2019-06-20T04:13:48.329Z,1015.12
2019-06-20T04:14:18.295Z,1015.14
2019-06-20T04:14:50.334Z,1015.11
2019-06-20T04:15:51.230Z,1015.09
2019-06-20T04:16:18.310Z,1015.11
2019-06-20T04:16:48.338Z,1015.07
2019-06-20T04:17:18.424Z,1015.08
2019-06-20T04:17:49.328Z,1015.05
2019-06-20T04:18:18.263Z,1015.04
2019-06-20T04:18:51.096Z,1015.03
2019-06-20T04:19:18.353Z,1015.03
2019-06-20T04:19:48.330Z,1015.07
2019-06-20T04:20:18.266Z,1015.05
2019-06-20T04:20:48.328Z,1015.08
2019-06-20T04:21:18.286Z,1015.08
2019-06-20T04:21:48.326Z,1015.10
2019-06-20T04:22:18.288Z,1015.10
2019-06-20T04:22:48.335Z,1015.11
2019-06-20T04:23:18.265Z,1015.13
2019-06-20T04:23:48.328Z,1015.12
2019-06-20T04:24:18.260Z,1015.14
2019-06-20T04:24:48.336Z,1015.12
2019-06-20T04:25:18.270Z,1015.10
2019-06-20T04:25:48.324Z,1015.12
2019-06-20T04:26:21.171Z,1015.11
2019-06-20T04:26:48.336Z,1015.12
2019-06-20T04:27:18.267Z,1015.09
2019-06-20T04:27:48.336Z,1015.08
2019-06-20T04:28:19.281Z,1015.07
2019-06-20T04:28:48.326Z,1015.05
2019-06-20T04:29:21.137Z,1015.05
2019-06-20T04:29:48.338Z,1015.06
2019-06-20T04:30:18.272Z,1015.06
2019-06-20T04:30:48.339Z,1015.08
2019-06-20T04:31:18.285Z,1015.07
2019-06-20T04:31:48.334Z,1015.05
2019-06-20T04:32:18.260Z,1015.06
2019-06-20T04:32:48.431Z,1015.09
2019-06-20T04:33:18.265Z,1015.09
2019-06-20T04:33:48.354Z,1015.08
2019-06-20T04:34:18.272Z,1015.09
2019-06-20T04:34:48.328Z,1015.08
2019-06-20T04:35:18.277Z,1015.05
2019-06-20T04:35:48.336Z,1015.06
2019-06-20T04:36:18.268Z,1015.01
2019-06-20T04:36:51.193Z,1015.01
2019-06-20T04:37:18.267Z,1015.03
2019-06-20T04:37:48.332Z,1015.07
2019-06-20T04:38:18.268Z,1015.03
2019-06-20T04:38:49.347Z,1015.04
2019-06-20T04:39:20.280Z,1015.05
2019-06-20T04:39:51.102Z,1015.07
2019-06-20T04:40:18.271Z,1015.07
2019-06-20T04:40:48.334Z,1015.06
2019-06-20T04:41:18.272Z,1015.06
2019-06-20T04:41:48.336Z,1015.06
2019-06-20T04:42:20.283Z,1015.04
2019-06-20T04:42:48.344Z,1015.03
2019-06-20T04:43:18.274Z,1015.00
2019-06-20T04:43:48.465Z,1015.02
2019-06-20T04:44:18.354Z,1015.01
2019-06-20T04:44:48.343Z,1014.99
2019-06-20T04:45:31.403Z,1014.98
2019-06-20T04:45:48.348Z,1014.98
2019-06-20T04:46:18.325Z,1014.99
2019-06-20T04:46:48.405Z,1014.97
2019-06-20T04:47:21.212Z,1014.97
2019-06-20T04:47:48.334Z,1014.99
2019-06-20T04:48:18.293Z,1015.00
2019-06-20T04:48:48.339Z,1014.96
2019-06-20T04:49:20.283Z,1014.97
2019-06-20T04:49:48.361Z,1014.95
2019-06-20T04:50:21.134Z,1014.96
2019-06-20T04:50:48.378Z,1014.96
2019-06-20T04:51:18.296Z,1014.94
2019-06-20T04:51:48.334Z,1014.92
2019-06-20T04:52:18.272Z,1014.95
2019-06-20T04:52:48.326Z,1014.92
2019-06-20T04:53:48.330Z,1014.90
2019-06-20T04:54:18.281Z,1014.93
2019-06-20T04:54:48.438Z,1014.92
2019-06-20T04:55:18.271Z,1014.91
2019-06-20T04:56:18.278Z,1014.90
2019-06-20T04:56:48.339Z,1014.92
2019-06-20T04:57:18.290Z,1014.93
2019-06-20T04:57:51.232Z,1014.93
2019-06-20T04:58:48.372Z,1014.95
2019-06-20T04:59:18.286Z,1014.94
2019-06-20T04:59:48.360Z,1014.94
2019-06-20T05:00:18.291Z,1014.93
2019-06-20T05:00:51.129Z,1014.94
2019-06-20T05:01:18.278Z,1014.92
2019-06-20T05:01:48.350Z,1014.93
2019-06-20T05:02:18.275Z,1014.92
2019-06-20T05:02:48.340Z,1014.93
2019-06-20T05:03:48.346Z,1014.93
2019-06-20T05:04:18.276Z,1014.91
2019-06-20T05:04:48.349Z,1014.94
2019-06-20T05:05:18.275Z,1014.93
2019-06-20T05:06:17.110Z,1014.93
2019-06-20T05:06:48.339Z,1014.92
2019-06-20T05:07:17.053Z,1014.92
2019-06-20T05:07:48.345Z,1014.90
2019-06-20T05:08:19.185Z,1014.91
2019-06-20T05:08:48.360Z,1014.90
2019-06-20T05:09:18.279Z,1014.88
2019-06-20T05:09:48.342Z,1014.88
2019-06-20T05:10:19.293Z,1014.87
2019-06-20T05:10:48.348Z,1014.86
2019-06-20T05:11:21.130Z,1014.86
2019-06-20T05:11:48.343Z,1014.84
2019-06-20T05:12:18.287Z,1014.85
2019-06-20T05:12:48.341Z,1014.83
2019-06-20T05:13:18.309Z,1014.83
2019-06-20T05:13:48.345Z,1014.83
2019-06-20T05:14:18.305Z,1014.79
2019-06-20T05:14:48.355Z,1014.80
2019-06-20T05:15:18.282Z,1014.80
2019-06-20T05:15:53.591Z,1014.78
2019-06-20T05:16:18.290Z,1014.77
2019-06-20T05:16:48.339Z,1014.77
2019-06-20T05:17:18.275Z,1014.75
2019-06-20T05:17:48.342Z,1014.75
2019-06-20T05:18:51.267Z,1014.75
2019-06-20T05:19:18.286Z,1014.78
2019-06-20T05:19:48.349Z,1014.78
2019-06-20T05:20:18.279Z,1014.79
2019-06-20T05:21:18.291Z,1014.79
2019-06-20T05:21:51.109Z,1014.81
2019-06-20T05:22:18.285Z,1014.83
2019-06-20T05:22:48.353Z,1014.82
2019-06-20T05:23:18.282Z,1014.82
2019-06-20T05:23:48.343Z,1014.81
2019-06-20T05:24:18.289Z,1014.82
2019-06-20T05:24:48.350Z,1014.82
2019-06-20T05:25:18.272Z,1014.83
2019-06-20T05:26:18.289Z,1014.80
2019-06-20T05:26:48.341Z,1014.78
2019-06-20T05:27:18.347Z,1014.81
2019-06-20T05:27:48.347Z,1014.80
2019-06-20T05:28:48.354Z,1014.80
2019-06-20T05:29:21.238Z,1014.79
2019-06-20T05:29:48.363Z,1014.79
2019-06-20T05:30:18.297Z,1014.79
2019-06-20T05:31:19.321Z,1014.76
2019-06-20T05:31:48.351Z,1014.78
2019-06-20T05:32:21.150Z,1014.81
2019-06-20T05:32:48.351Z,1014.82
2019-06-20T05:33:48.358Z,1014.80
2019-06-20T05:34:18.375Z,1014.80
2019-06-20T05:34:48.351Z,1014.78
2019-06-20T05:35:18.287Z,1014.81
2019-06-20T05:36:18.308Z,1014.83
2019-06-20T05:36:48.348Z,1014.84
2019-06-20T05:37:18.339Z,1014.84
2019-06-20T05:37:48.365Z,1014.87
2019-06-20T05:38:48.360Z,1014.86
2019-06-20T05:39:18.284Z,1014.87
2019-06-20T05:39:51.254Z,1014.86
2019-06-20T05:40:18.282Z,1014.87
2019-06-20T05:41:18.288Z,1014.88
2019-06-20T05:41:49.348Z,1014.87
2019-06-20T05:42:18.288Z,1014.87
2019-06-20T05:42:53.099Z,1014.88
2019-06-20T05:43:48.352Z,1014.89
2019-06-20T05:44:18.296Z,1014.88
2019-06-20T05:44:48.356Z,1014.87
2019-06-20T05:45:18.307Z,1014.86
2019-06-20T05:46:18.426Z,1014.88
2019-06-20T05:46:48.353Z,1014.89
2019-06-20T05:47:18.313Z,1014.90
2019-06-20T05:47:48.387Z,1014.88
2019-06-20T05:48:18.283Z,1014.88
2019-06-20T05:48:48.353Z,1014.89
2019-06-20T05:49:19.026Z,1014.91
2019-06-20T05:49:48.411Z,1014.89
2019-06-20T05:50:21.260Z,1014.92
2019-06-20T05:50:48.566Z,1014.91
2019-06-20T05:51:18.301Z,1014.90
2019-06-20T05:51:48.357Z,1014.91
2019-06-20T05:52:19.291Z,1014.92
2019-06-20T05:52:48.359Z,1014.92
2019-06-20T05:53:21.119Z,1014.95
2019-06-20T05:53:48.361Z,1014.94
2019-06-20T05:54:18.294Z,1014.95
2019-06-20T05:54:48.374Z,1014.94
2019-06-20T05:55:18.294Z,1014.94
2019-06-20T05:55:48.370Z,1014.97
2019-06-20T05:56:18.301Z,1014.99
2019-06-20T05:56:48.360Z,1014.97
2019-06-20T05:57:18.293Z,1014.97
2019-06-20T05:57:48.358Z,1014.98
2019-06-20T05:58:18.351Z,1014.98
2019-06-20T05:58:48.355Z,1014.97
2019-06-20T05:59:18.311Z,1014.97
2019-06-20T05:59:48.361Z,1014.99
2019-06-20T06:00:18.521Z,1014.95
2019-06-20T06:00:51.258Z,1014.93
2019-06-20T06:01:18.319Z,1014.96
2019-06-20T06:01:48.358Z,1014.97
2019-06-20T06:02:18.296Z,1014.96
2019-06-20T06:02:49.358Z,1014.94
2019-06-20T06:03:18.968Z,1014.95
2019-06-20T06:03:53.114Z,1014.96
2019-06-20T06:04:18.293Z,1014.96
2019-06-20T06:04:48.369Z,1014.93
2019-06-20T06:05:18.294Z,1014.97
2019-06-20T06:05:48.373Z,1014.95
2019-06-20T06:06:18.299Z,1014.93
2019-06-20T06:06:47.562Z,1014.94
2019-06-20T06:07:18.309Z,1014.93
2019-06-20T06:07:48.355Z,1014.91
2019-06-20T06:08:18.410Z,1014.95
2019-06-20T06:08:47.132Z,1014.94
2019-06-20T06:09:18.301Z,1014.93
2019-06-20T06:09:48.362Z,1014.94
2019-06-20T06:10:18.295Z,1014.97
2019-06-20T06:10:48.362Z,1014.97
2019-06-20T06:11:19.155Z,1014.99
2019-06-20T06:11:48.417Z,1014.98
2019-06-20T06:12:18.303Z,1014.99
2019-06-20T06:12:47.134Z,1014.97
2019-06-20T06:13:19.302Z,1014.97
2019-06-20T06:13:48.361Z,1014.98
2019-06-20T06:14:21.112Z,1014.97
2019-06-20T06:14:49.109Z,1014.95
2019-06-20T06:15:18.310Z,1014.95
2019-06-20T06:15:48.363Z,1014.95
2019-06-20T06:16:28.376Z,1014.94
2019-06-20T06:16:48.374Z,1014.94
2019-06-20T06:17:18.307Z,1014.94
2019-06-20T06:17:48.365Z,1014.92
2019-06-20T06:18:18.321Z,1014.91
2019-06-20T06:18:48.358Z,1014.89
2019-06-20T06:19:18.307Z,1014.92
2019-06-20T06:19:48.367Z,1014.92
2019-06-20T06:20:18.299Z,1014.93
2019-06-20T06:20:48.364Z,1014.91
2019-06-20T06:21:51.247Z,1014.95
2019-06-20T06:22:18.304Z,1014.92
2019-06-20T06:22:48.365Z,1014.92
2019-06-20T06:23:18.304Z,1014.92
2019-06-20T06:24:18.301Z,1014.91
2019-06-20T06:24:53.115Z,1014.94
2019-06-20T06:25:18.301Z,1014.93
2019-06-20T06:25:48.368Z,1014.93
2019-06-20T06:26:48.367Z,1014.97
2019-06-20T06:27:18.314Z,1014.95
2019-06-20T06:27:48.402Z,1014.96
2019-06-20T06:28:18.311Z,1014.95
2019-06-20T06:29:18.309Z,1014.97
2019-06-20T06:29:48.366Z,1014.97
2019-06-20T06:30:18.338Z,1014.98
2019-06-20T06:30:48.372Z,1014.98
2019-06-20T06:31:48.367Z,1015.00
2019-06-20T06:32:21.490Z,1015.00
2019-06-20T06:32:48.478Z,1015.03
2019-06-20T06:33:18.621Z,1015.02
2019-06-20T06:34:25.439Z,1015.04
2019-06-20T06:34:48.457Z,1015.03
2019-06-20T06:35:21.118Z,1015.02
2019-06-20T06:35:48.426Z,1015.01
2019-06-20T06:36:48.367Z,1015.02
2019-06-20T06:37:18.303Z,1015.04
2019-06-20T06:37:48.376Z,1015.01
2019-06-20T06:38:23.329Z,1015.02
2019-06-20T06:39:18.309Z,1015.04
2019-06-20T06:39:48.368Z,1015.05
2019-06-20T06:40:18.305Z,1015.03
2019-06-20T06:40:48.367Z,1015.03
2019-06-20T06:41:48.373Z,1015.03
2019-06-20T06:42:18.312Z,1015.02
2019-06-20T06:42:51.250Z,1015.02
2019-06-20T06:43:18.306Z,1015.01
2019-06-20T06:44:18.340Z,1015.00
2019-06-20T06:44:49.370Z,1015.00
2019-06-20T06:45:18.306Z,1015.01
2019-06-20T06:45:53.130Z,1015.02
2019-06-20T06:46:59.386Z,1015.02
2019-06-20T06:47:18.316Z,1015.02
2019-06-20T06:47:48.380Z,1015.02
2019-06-20T06:48:18.323Z,1014.99
2019-06-20T06:49:18.307Z,1014.98
2019-06-20T06:49:48.373Z,1015.00
2019-06-20T06:50:18.343Z,1015.00
2019-06-20T06:50:48.373Z,1015.00
2019-06-20T06:51:48.380Z,1014.98
2019-06-20T06:52:18.312Z,1014.99